KPAE

Snohomish County (Paine Field) Airport

Everett, Washington, USA
METAR KPAE 190653Z AUTO 12010KT 10SM SCT042 OVC055 05/03 A2980 RMK AO2 SLP095 T00500028
Observed Flight Rules
Jan-19 @ 06:53 UTC (37 minutes ago) Visual Flight Rules
Wind Visibility Clouds
120° at 10 knots 10 miles
  • Scattered at 4,200' AGL
  • Overcast at 5,500' AGL
Temperatures Readings
Current 5°C / 41°F
Dewpoint 3°C / 37°F
Humidity 87%
Altimeter 29.8" Hg
Pressure 1009.5 hPa
Elevation 180
METAR KPAE 190653Z AUTO 12010KT 10SM SCT042 OVC055 05/03 A2980 RMK AO2 SLP095 T00500028
Observed Flight Rules
Jan-19 @ 06:53 UTC
(37 minutes ago)
VFR
Wind Visibility
120° at 10 knots 10 miles
Clouds
  • Scattered at 4,200' AGL
  • Overcast at 5,500' AGL
Temperature Dewpoint
5°C / 41°F 3°C / 37°F
Humidity Altimeter Pressure
87% 29.8" Hg 1009.5 hPa